sensor_id;sensor_type;location;lat;lon;timestamp;temperature;humidity
37322;DHT22;23697;48.684;9.032;2023-05-27T10:17:54;22.10;48.60
37322;DHT22;23697;48.684;9.032;2023-05-27T10:26:48;22.10;47.20
37322;DHT22;23697;48.684;9.032;2023-05-27T10:59:55;23.20;45.80
37322;DHT22;23697;48.684;9.032;2023-05-27T11:02:22;23.10;45.80
37322;DHT22;23697;48.684;9.032;2023-05-27T11:04:49;23.10;44.70
37322;DHT22;23697;48.684;9.032;2023-05-27T11:07:17;23.20;46.50
37322;DHT22;23697;48.684;9.032;2023-05-27T11:09:44;23.20;45.00
37322;DHT22;23697;48.684;9.032;2023-05-27T11:12:14;23.10;45.50
37322;DHT22;23697;48.684;9.032;2023-05-27T11:14:43;23.20;44.90
37322;DHT22;23697;48.684;9.032;2023-05-27T11:17:11;23.10;45.80
37322;DHT22;23697;48.684;9.032;2023-05-27T11:19:38;22.90;44.90
37322;DHT22;23697;48.684;9.032;2023-05-27T11:22:06;23.00;45.50
37322;DHT22;23697;48.684;9.032;2023-05-27T11:24:34;22.90;44.60
37322;DHT22;23697;48.684;9.032;2023-05-27T11:27:07;23.10;45.20
37322;DHT22;23697;48.684;9.032;2023-05-27T11:29:34;23.20;44.10
37322;DHT22;23697;48.684;9.032;2023-05-27T11:32:01;23.20;43.60
37322;DHT22;23697;48.684;9.032;2023-05-27T11:34:29;23.10;45.50
37322;DHT22;23697;48.684;9.032;2023-05-27T11:36:55;23.20;44.60
37322;DHT22;23697;48.684;9.032;2023-05-27T11:39:29;23.50;45.90
37322;DHT22;23697;48.684;9.032;2023-05-27T11:41:56;23.80;43.70
37322;DHT22;23697;48.684;9.032;2023-05-27T11:44:23;23.60;43.60
37322;DHT22;23697;48.684;9.032;2023-05-27T11:46:51;23.80;43.70
37322;DHT22;23697;48.684;9.032;2023-05-27T11:49:19;23.90;44.90
37322;DHT22;23697;48.684;9.032;2023-05-27T11:51:47;23.90;42.30
37322;DHT22;23697;48.684;9.032;2023-05-27T11:54:17;23.60;43.00
37322;DHT22;23697;48.684;9.032;2023-05-27T11:56:44;23.40;44.80
37322;DHT22;23697;48.684;9.032;2023-05-27T11:59:10;23.00;44.10
37322;DHT22;23697;48.684;9.032;2023-05-27T12:01:39;23.10;45.40
37322;DHT22;23697;48.684;9.032;2023-05-27T12:04:05;23.10;43.40
37322;DHT22;23697;48.684;9.032;2023-05-27T12:06:32;23.20;44.70
37322;DHT22;23697;48.684;9.032;2023-05-27T12:09:01;23.50;44.30
37322;DHT22;23697;48.684;9.032;2023-05-27T12:11:28;23.80;44.90
37322;DHT22;23697;48.684;9.032;2023-05-27T12:13:55;24.10;43.00
37322;DHT22;23697;48.684;9.032;2023-05-27T12:16:22;24.10;41.80
37322;DHT22;23697;48.684;9.032;2023-05-27T12:18:48;24.00;41.40
37322;DHT22;23697;48.684;9.032;2023-05-27T12:21:15;24.10;45.70
37322;DHT22;23697;48.684;9.032;2023-05-27T12:23:42;24.20;43.30
37322;DHT22;23697;48.684;9.032;2023-05-27T12:26:11;24.10;42.70
37322;DHT22;23697;48.684;9.032;2023-05-27T12:28:38;24.00;42.40
37322;DHT22;23697;48.684;9.032;2023-05-27T12:31:05;24.10;42.90
37322;DHT22;23697;48.684;9.032;2023-05-27T12:33:32;24.10;42.40
37322;DHT22;23697;48.684;9.032;2023-05-27T12:35:58;24.10;41.00
37322;DHT22;23697;48.684;9.032;2023-05-27T12:38:25;24.10;41.80
37322;DHT22;23697;48.684;9.032;2023-05-27T12:40:52;24.20;41.90
37322;DHT22;23697;48.684;9.032;2023-05-27T12:43:30;24.20;41.30
37322;DHT22;23697;48.684;9.032;2023-05-27T12:45:56;24.20;42.30
37322;DHT22;23697;48.684;9.032;2023-05-27T12:48:24;24.40;41.90
37322;DHT22;23697;48.684;9.032;2023-05-27T12:50:51;24.40;40.70
37322;DHT22;23697;48.684;9.032;2023-05-27T12:53:18;24.10;40.80
37322;DHT22;23697;48.684;9.032;2023-05-27T12:55:44;23.70;40.70
37322;DHT22;23697;48.684;9.032;2023-05-27T12:58:11;23.60;42.40
37322;DHT22;23697;48.684;9.032;2023-05-27T13:00:39;23.90;43.50
37322;DHT22;23697;48.684;9.032;2023-05-27T13:03:06;24.30;42.90
37322;DHT22;23697;48.684;9.032;2023-05-27T13:05:33;24.60;41.10
37322;DHT22;23697;48.684;9.032;2023-05-27T13:08:00;24.70;39.70
37322;DHT22;23697;48.684;9.032;2023-05-27T13:10:27;24.80;40.30
37322;DHT22;23697;48.684;9.032;2023-05-27T13:12:54;24.50;39.40
37322;DHT22;23697;48.684;9.032;2023-05-27T13:15:21;24.20;39.00
37322;DHT22;23697;48.684;9.032;2023-05-27T13:17:50;24.10;40.80
37322;DHT22;23697;48.684;9.032;2023-05-27T13:20:18;24.10;41.00
37322;DHT22;23697;48.684;9.032;2023-05-27T13:22:45;24.20;41.00
37322;DHT22;23697;48.684;9.032;2023-05-27T13:25:13;24.30;40.00
37322;DHT22;23697;48.684;9.032;2023-05-27T13:27:40;24.50;40.60
37322;DHT22;23697;48.684;9.032;2023-05-27T13:30:07;24.70;39.80
37322;DHT22;23697;48.684;9.032;2023-05-27T13:32:34;24.90;40.80
37322;DHT22;23697;48.684;9.032;2023-05-27T13:35:02;25.00;38.90
37322;DHT22;23697;48.684;9.032;2023-05-27T13:37:29;24.80;38.70
37322;DHT22;23697;48.684;9.032;2023-05-27T13:39:56;24.90;37.90
37322;DHT22;23697;48.684;9.032;2023-05-27T13:42:23;24.70;37.00
37322;DHT22;23697;48.684;9.032;2023-05-27T13:44:50;24.60;37.70
37322;DHT22;23697;48.684;9.032;2023-05-27T13:47:16;24.80;38.30
37322;DHT22;23697;48.684;9.032;2023-05-27T13:49:43;24.90;37.70
37322;DHT22;23697;48.684;9.032;2023-05-27T13:52:11;24.90;38.90
37322;DHT22;23697;48.684;9.032;2023-05-27T13:54:38;25.00;36.90
37322;DHT22;23697;48.684;9.032;2023-05-27T13:57:04;24.80;36.10
37322;DHT22;23697;48.684;9.032;2023-05-27T13:59:31;24.60;36.20
37322;DHT22;23697;48.684;9.032;2023-05-27T14:01:58;24.60;39.00
37322;DHT22;23697;48.684;9.032;2023-05-27T14:04:24;24.60;35.60
37322;DHT22;23697;48.684;9.032;2023-05-27T14:06:52;24.60;36.90
37322;DHT22;23697;48.684;9.032;2023-05-27T14:09:20;24.80;38.00
37322;DHT22;23697;48.684;9.032;2023-05-27T14:11:47;24.90;37.50
37322;DHT22;23697;48.684;9.032;2023-05-27T14:14:13;25.10;35.70
37322;DHT22;23697;48.684;9.032;2023-05-27T14:16:40;25.10;36.70
37322;DHT22;23697;48.684;9.032;2023-05-27T14:25:18;24.80;36.50
37322;DHT22;23697;48.684;9.032;2023-05-27T14:27:46;25.10;39.00
37322;DHT22;23697;48.684;9.032;2023-05-27T14:30:13;25.10;37.30
37322;DHT22;23697;48.684;9.032;2023-05-27T14:32:41;25.00;36.60
37322;DHT22;23697;48.684;9.032;2023-05-27T14:35:08;24.80;35.50
37322;DHT22;23697;48.684;9.032;2023-05-27T14:37:35;24.80;37.30
37322;DHT22;23697;48.684;9.032;2023-05-27T14:40:02;24.90;36.10
37322;DHT22;23697;48.684;9.032;2023-05-27T14:42:30;24.80;36.30
37322;DHT22;23697;48.684;9.032;2023-05-27T14:44:56;24.60;35.80
37322;DHT22;23697;48.684;9.032;2023-05-27T14:47:23;24.60;37.00
37322;DHT22;23697;48.684;9.032;2023-05-27T14:49:50;24.80;37.30
37322;DHT22;23697;48.684;9.032;2023-05-27T14:52:17;24.90;33.60
37322;DHT22;23697;48.684;9.032;2023-05-27T16:23:26;24.00;37.00
37322;DHT22;23697;48.684;9.032;2023-05-27T16:26:18;23.80;35.80
37322;DHT22;23697;48.684;9.032;2023-05-27T17:06:08;22.10;37.00
37322;DHT22;23697;48.684;9.032;2023-05-27T17:08:51;22.10;37.10
37322;DHT22;23697;48.684;9.032;2023-05-27T17:20:41;21.90;38.30
37322;DHT22;23697;48.684;9.032;2023-05-27T17:26:04;21.80;38.60
37322;DHT22;23697;48.684;9.032;2023-05-27T17:28:33;21.80;38.80
37322;DHT22;23697;48.684;9.032;2023-05-27T17:31:01;21.70;40.10
37322;DHT22;23697;48.684;9.032;2023-05-27T17:37:23;21.60;38.00
37322;DHT22;23697;48.684;9.032;2023-05-27T17:40:03;21.60;39.70
37322;DHT22;23697;48.684;9.032;2023-05-27T17:42:35;21.50;38.70
37322;DHT22;23697;48.684;9.032;2023-05-27T17:45:10;21.50;40.00
37322;DHT22;23697;48.684;9.032;2023-05-27T17:47:37;21.40;39.60
37322;DHT22;23697;48.684;9.032;2023-05-27T17:50:04;21.40;40.90
37322;DHT22;23697;48.684;9.032;2023-05-27T17:52:31;21.30;39.20
37322;DHT22;23697;48.684;9.032;2023-05-27T17:54:58;21.30;39.40
37322;DHT22;23697;48.684;9.032;2023-05-27T17:57:24;21.20;39.10
37322;DHT22;23697;48.684;9.032;2023-05-27T17:59:54;21.20;39.80
37322;DHT22;23697;48.684;9.032;2023-05-27T18:02:22;21.20;39.20
37322;DHT22;23697;48.684;9.032;2023-05-27T18:05:07;21.10;39.00
37322;DHT22;23697;48.684;9.032;2023-05-27T18:07:41;21.10;39.00
37322;DHT22;23697;48.684;9.032;2023-05-27T18:10:13;21.00;38.40
37322;DHT22;23697;48.684;9.032;2023-05-27T18:12:49;21.00;39.50
37322;DHT22;23697;48.684;9.032;2023-05-27T18:15:31;20.90;39.30
37322;DHT22;23697;48.684;9.032;2023-05-27T18:17:58;20.80;39.00
37322;DHT22;23697;48.684;9.032;2023-05-27T18:20:25;20.80;38.80
37322;DHT22;23697;48.684;9.032;2023-05-27T18:23:04;20.80;39.20
37322;DHT22;23697;48.684;9.032;2023-05-27T18:53:29;20.00;41.20
37322;DHT22;23697;48.684;9.032;2023-05-27T19:02:16;19.80;42.70
